createdAt,value
2023-03-18T00:02:22.811Z,98585.81
2023-03-18T00:04:51.235Z,98581.25
2023-03-18T00:07:23.760Z,98587.53
2023-03-18T00:09:58.773Z,98583.72
2023-03-18T00:12:29.229Z,98588.63
2023-03-18T00:14:56.886Z,98586.91
2023-03-18T00:17:25.625Z,98586.59
2023-03-18T00:19:54.104Z,98588.22
2023-03-18T00:22:24.611Z,98592.88
2023-03-18T00:24:53.082Z,98591.16
2023-03-18T00:27:20.762Z,98592.78
2023-03-18T00:29:48.362Z,98598.00
2023-03-18T00:32:18.313Z,98603.56
2023-03-18T00:34:46.503Z,98602.63
2023-03-18T00:37:19.025Z,98609.19
2023-03-18T00:39:48.363Z,98599.81
2023-03-18T00:42:17.514Z,98611.41
2023-03-18T00:44:45.248Z,98623.88
2023-03-18T00:47:13.439Z,98622.38
2023-03-18T00:49:41.130Z,98617.19
2023-03-18T00:52:12.283Z,98615.34
2023-03-18T00:54:40.082Z,98613.63
2023-03-18T00:57:10.774Z,98615.50
2023-03-18T00:59:38.332Z,98609.53
2023-03-18T01:02:06.155Z,98617.56
2023-03-18T01:04:33.777Z,98611.03
2023-03-18T01:07:02.664Z,98612.38
2023-03-18T01:09:30.279Z,98615.28
2023-03-18T01:11:57.914Z,98617.06
2023-03-18T01:14:27.780Z,98613.53
2023-03-18T01:16:56.007Z,98607.25
2023-03-18T01:19:24.103Z,98610.19
2023-03-18T01:21:51.689Z,98609.13
2023-03-18T01:24:19.257Z,98609.41
2023-03-18T01:26:47.063Z,98608.41
2023-03-18T01:29:14.671Z,98594.91
2023-03-18T01:31:43.736Z,98589.84
2023-03-18T01:34:11.304Z,98594.88
2023-03-18T01:36:38.913Z,98604.78
2023-03-18T01:39:06.983Z,98607.56
2023-03-18T01:41:36.603Z,98599.09
2023-03-18T01:44:05.031Z,98598.41
2023-03-18T01:46:38.584Z,98590.78
2023-03-18T01:49:10.718Z,98584.91
2023-03-18T01:54:20.985Z,98594.84
2023-03-18T01:56:50.453Z,98585.53
2023-03-18T01:59:18.515Z,98585.03
2023-03-18T02:01:51.564Z,98597.25
2023-03-18T02:04:21.358Z,98589.53
2023-03-18T02:06:48.944Z,98593.22
2023-03-18T02:09:16.557Z,98594.56
2023-03-18T02:11:49.780Z,98593.00
2023-03-18T02:14:20.499Z,98590.72
2023-03-18T02:16:50.333Z,98586.47
2023-03-18T02:19:32.716Z,98595.06
2023-03-18T02:22:09.637Z,98591.00
2023-03-18T02:24:42.479Z,98588.66
2023-03-18T02:27:18.630Z,98594.00
2023-03-18T02:29:46.733Z,98592.16
2023-03-18T02:32:15.333Z,98598.03
2023-03-18T02:34:44.141Z,98604.94
2023-03-18T02:37:12.087Z,98620.72
2023-03-18T02:39:39.716Z,98616.09
2023-03-18T02:42:07.562Z,98624.91
2023-03-18T02:44:40.437Z,98637.53
2023-03-18T02:47:11.597Z,98631.63
2023-03-18T02:49:39.257Z,98633.28
2023-03-18T02:52:07.413Z,98623.97
2023-03-18T02:54:35.009Z,98619.50
2023-03-18T02:57:02.818Z,98611.53
2023-03-18T02:59:32.408Z,98622.56
2023-03-18T03:02:02.064Z,98614.88
2023-03-18T03:04:29.794Z,98611.34
2023-03-18T03:06:57.919Z,98621.50
2023-03-18T03:09:26.081Z,98619.28
2023-03-18T03:11:53.706Z,98624.56
2023-03-18T03:14:21.601Z,98626.19
2023-03-18T03:16:49.608Z,98630.16
2023-03-18T03:19:18.563Z,98632.16
2023-03-18T03:21:46.270Z,98636.56
2023-03-18T03:24:13.852Z,98630.56
2023-03-18T03:26:41.410Z,98641.94
2023-03-18T03:29:09.456Z,98639.53
2023-03-18T03:31:37.092Z,98642.34
2023-03-18T03:34:04.820Z,98630.84
2023-03-18T03:36:34.110Z,98628.22
2023-03-18T03:39:02.216Z,98634.19
2023-03-18T03:41:29.798Z,98631.50
2023-03-18T03:43:57.397Z,98630.84
2023-03-18T03:46:25.159Z,98632.69
2023-03-18T03:48:52.708Z,98637.03
2023-03-18T03:51:20.305Z,98631.00
2023-03-18T03:53:49.304Z,98629.56
2023-03-18T03:56:17.525Z,98632.19
2023-03-18T03:58:45.781Z,98636.66
2023-03-18T04:01:13.440Z,98640.84
2023-03-18T04:03:41.060Z,98636.81
2023-03-18T04:06:09.072Z,98635.66
2023-03-18T04:08:36.764Z,98638.94
2023-03-18T04:11:06.030Z,98637.56
2023-03-18T04:13:33.766Z,98641.06
2023-03-18T04:16:01.434Z,98648.34
2023-03-18T04:18:29.059Z,98649.00
2023-03-18T04:20:56.573Z,98648.34
2023-03-18T04:23:24.105Z,98658.66
2023-03-18T04:25:51.654Z,98657.22
2023-03-18T04:28:20.597Z,98650.44
2023-03-18T04:30:49.042Z,98651.25
2023-03-18T04:33:16.662Z,98655.91
2023-03-18T04:35:44.511Z,98660.88
2023-03-18T04:38:12.481Z,98664.16
2023-03-18T04:40:40.060Z,98659.63
2023-03-18T04:43:07.706Z,98660.28
2023-03-18T04:45:36.632Z,98663.56
2023-03-18T04:48:04.204Z,98661.16
2023-03-18T04:50:32.036Z,98670.81
2023-03-18T04:53:00.160Z,98671.84
2023-03-18T04:55:28.054Z,98669.94
2023-03-18T04:57:55.657Z,98666.41
2023-03-18T05:00:23.712Z,98668.69
2023-03-18T05:02:52.677Z,98678.28
2023-03-18T05:05:21.064Z,98675.06
2023-03-18T05:07:48.608Z,98675.41
2023-03-18T05:10:16.673Z,98667.84
2023-03-18T05:12:44.326Z,98668.69
2023-03-18T05:15:13.105Z,98662.19
2023-03-18T05:17:41.248Z,98668.19
2023-03-18T05:20:13.331Z,98667.78
2023-03-18T05:22:40.973Z,98659.97
2023-03-18T05:25:11.109Z,98662.72
2023-03-18T05:27:38.746Z,98663.00
2023-03-18T05:30:07.432Z,98664.38
2023-03-18T05:32:35.416Z,98659.91
2023-03-18T05:35:03.795Z,98659.25
2023-03-18T05:37:32.795Z,98655.56
2023-03-18T05:40:01.318Z,98660.22
2023-03-18T05:42:29.131Z,98656.81
2023-03-18T05:44:57.894Z,98664.91
2023-03-18T05:47:25.475Z,98661.09
2023-03-18T05:49:53.028Z,98674.16
2023-03-18T05:52:20.670Z,98671.00
2023-03-18T05:54:50.141Z,98675.13
2023-03-18T05:57:17.937Z,98678.84
2023-03-18T05:59:45.477Z,98671.91
2023-03-18T06:02:13.110Z,98671.28
2023-03-18T06:04:41.144Z,98674.84
2023-03-18T06:07:08.889Z,98688.13
2023-03-18T06:09:36.824Z,98684.72
2023-03-18T06:12:07.169Z,98681.00
2023-03-18T06:14:35.404Z,98679.22
2023-03-18T06:17:03.053Z,98679.59
2023-03-18T06:19:32.096Z,98686.75
2023-03-18T06:21:59.785Z,98691.13
2023-03-18T06:24:27.520Z,98694.50
2023-03-18T06:26:55.317Z,98687.22
2023-03-18T06:29:25.216Z,98690.38
2023-03-18T06:31:52.825Z,98693.63
2023-03-18T06:34:20.397Z,98691.47
2023-03-18T06:36:48.045Z,98704.09
2023-03-18T06:39:15.582Z,98702.13
2023-03-18T06:41:43.226Z,98697.47
2023-03-18T06:44:11.117Z,98699.81
2023-03-18T06:46:41.988Z,98703.91
2023-03-18T06:49:11.489Z,98700.91
2023-03-18T06:51:39.565Z,98710.88
2023-03-18T06:54:07.240Z,98703.31
2023-03-18T06:56:37.595Z,98713.09
2023-03-18T06:59:05.381Z,98716.09
2023-03-18T07:01:33.417Z,98711.47
2023-03-18T07:04:02.804Z,98712.84
2023-03-18T07:06:31.661Z,98720.22
2023-03-18T07:08:59.475Z,98712.75
2023-03-18T07:11:28.113Z,98711.47
2023-03-18T07:13:55.723Z,98716.16
2023-03-18T07:16:23.315Z,98722.84
2023-03-18T07:18:50.935Z,98734.09
2023-03-18T07:21:19.867Z,98736.34
2023-03-18T07:23:47.498Z,98731.66
2023-03-18T07:26:15.160Z,98731.97
2023-03-18T07:28:42.823Z,98734.38
2023-03-18T07:31:10.421Z,98738.13
2023-03-18T07:33:38.014Z,98741.78
2023-03-18T07:36:06.144Z,98738.69
2023-03-18T07:38:35.807Z,98738.94
2023-03-18T07:41:03.680Z,98729.00
2023-03-18T07:43:31.488Z,98733.38
2023-03-18T07:45:59.815Z,98734.63
2023-03-18T07:48:27.375Z,98742.53
2023-03-18T07:50:55.111Z,98736.09
2023-03-18T07:53:22.902Z,98740.34
2023-03-18T07:55:51.832Z,98745.38
2023-03-18T07:58:19.723Z,98737.00
2023-03-18T08:00:48.257Z,98747.16
2023-03-18T08:03:16.770Z,98724.09
2023-03-18T08:05:44.628Z,98734.88
2023-03-18T08:08:12.500Z,98724.75
2023-03-18T08:10:40.121Z,98735.75
2023-03-18T08:13:09.171Z,98726.81
2023-03-18T08:15:36.845Z,98737.56
2023-03-18T08:18:06.026Z,98752.66
2023-03-18T08:20:35.585Z,98742.59
2023-03-18T08:23:03.857Z,98747.09
2023-03-18T08:25:32.730Z,98748.28
2023-03-18T08:28:00.548Z,98747.88
2023-03-18T08:30:30.466Z,98748.16
2023-03-18T08:32:58.279Z,98745.81
2023-03-18T08:35:26.596Z,98742.66
2023-03-18T08:37:54.344Z,98755.25
2023-03-18T08:40:22.118Z,98755.34
2023-03-18T08:42:49.990Z,98757.28
2023-03-18T08:45:17.951Z,98761.75
2023-03-18T08:47:47.249Z,98767.84
2023-03-18T08:50:16.995Z,98763.78
2023-03-18T08:52:44.829Z,98764.56
2023-03-18T08:55:12.560Z,98767.09
2023-03-18T08:57:40.437Z,98758.38
2023-03-18T09:00:09.943Z,98761.91
2023-03-18T09:02:37.720Z,98763.34
2023-03-18T09:05:07.832Z,98758.25
2023-03-18T09:07:36.214Z,98765.63
2023-03-18T09:10:04.365Z,98762.88
2023-03-18T09:12:32.022Z,98757.13
2023-03-18T09:14:59.785Z,98754.19
2023-03-18T09:17:45.242Z,98757.22
2023-03-18T09:20:18.086Z,98750.41
2023-03-18T09:22:47.031Z,98746.28
2023-03-18T09:25:16.684Z,98743.53
2023-03-18T09:27:45.749Z,98732.28
2023-03-18T09:30:14.395Z,98742.31
2023-03-18T09:32:42.337Z,98740.75
2023-03-18T09:35:13.154Z,98738.47
2023-03-18T09:37:42.370Z,98737.25
2023-03-18T09:40:25.069Z,98742.38
2023-03-18T09:43:00.482Z,98744.81
2023-03-18T09:45:32.230Z,98756.16
2023-03-18T09:48:11.344Z,98755.78
2023-03-18T09:50:41.745Z,98755.47
2023-03-18T09:53:22.453Z,98762.38
2023-03-18T09:55:52.392Z,98760.00
2023-03-18T09:58:24.928Z,98756.88
2023-03-18T10:00:55.087Z,98748.88
2023-03-18T10:03:29.027Z,98751.59
2023-03-18T10:06:00.097Z,98753.94
2023-03-18T10:08:45.414Z,98752.28
2023-03-18T10:11:20.505Z,98758.75
2023-03-18T10:13:49.647Z,98760.13
2023-03-18T10:16:22.788Z,98761.03
2023-03-18T10:18:50.600Z,98758.00
2023-03-18T10:21:22.369Z,98756.00
2023-03-18T10:23:57.012Z,98757.19
2023-03-18T10:26:28.261Z,98745.84
2023-03-18T10:29:03.772Z,98744.34
2023-03-18T10:31:37.803Z,98742.53
2023-03-18T10:34:09.571Z,98745.94
2023-03-18T10:36:40.611Z,98743.28
2023-03-18T10:39:16.366Z,98744.56
2023-03-18T10:41:45.069Z,98750.06
2023-03-18T10:44:19.132Z,98747.75
2023-03-18T10:46:48.690Z,98747.19
2023-03-18T10:49:18.986Z,98754.22
2023-03-18T10:51:52.422Z,98747.72
2023-03-18T10:54:25.890Z,98747.34
2023-03-18T10:56:53.775Z,98748.34
2023-03-18T10:59:22.554Z,98745.09
2023-03-18T11:01:54.654Z,98748.22
2023-03-18T11:04:24.062Z,98748.22
2023-03-18T11:06:54.275Z,98743.41
2023-03-18T11:09:32.036Z,98752.84
2023-03-18T11:12:05.496Z,98746.59
2023-03-18T11:14:33.847Z,98749.53
2023-03-18T11:17:04.461Z,98757.81
2023-03-18T11:19:33.385Z,98754.09
2023-03-18T11:22:04.302Z,98747.94
2023-03-18T11:24:42.441Z,98736.81
2023-03-18T11:27:27.897Z,98739.88
2023-03-18T11:29:58.989Z,98741.59
2023-03-18T11:32:28.827Z,98733.63
2023-03-18T11:34:58.264Z,98736.47
2023-03-18T11:37:32.688Z,98733.06
2023-03-18T11:40:25.754Z,98728.81
2023-03-18T11:42:57.680Z,98719.22
2023-03-18T11:45:45.063Z,98724.44
2023-03-18T11:48:17.723Z,98725.13
2023-03-18T11:50:58.497Z,98722.38
2023-03-18T11:53:32.032Z,98720.72
2023-03-18T11:56:03.547Z,98721.78
2023-03-18T11:58:52.585Z,98711.94
2023-03-18T12:01:24.967Z,98710.16
2023-03-18T12:04:11.695Z,98711.88
2023-03-18T12:06:42.956Z,98707.47
2023-03-18T12:09:18.570Z,98705.84
2023-03-18T12:11:57.134Z,98704.59
2023-03-18T12:14:30.549Z,98700.50
2023-03-18T12:17:07.444Z,98704.66
2023-03-18T12:19:54.701Z,98698.75
2023-03-18T12:22:34.440Z,98696.16
2023-03-18T12:25:19.759Z,98693.50
2023-03-18T12:27:56.635Z,98693.88
2023-03-18T12:30:44.602Z,98701.13
2023-03-18T12:33:23.456Z,98691.31
2023-03-18T12:35:55.167Z,98692.03
2023-03-18T12:38:43.596Z,98690.22
2023-03-18T12:41:15.250Z,98697.50
2023-03-18T12:43:52.674Z,98694.47
2023-03-18T12:46:27.406Z,98687.94
2023-03-18T12:48:58.984Z,98687.47
2023-03-18T12:51:28.574Z,98695.34
2023-03-18T12:53:58.173Z,98695.94
2023-03-18T12:56:27.517Z,98692.78
2023-03-18T12:59:01.130Z,98684.78
2023-03-18T13:01:35.007Z,98688.31
2023-03-18T13:04:05.493Z,98694.25
2023-03-18T13:06:39.300Z,98692.44
2023-03-18T13:09:11.192Z,98678.97
2023-03-18T13:11:49.381Z,98682.25
2023-03-18T13:14:24.775Z,98684.19
2023-03-18T13:16:53.205Z,98676.69
2023-03-18T13:19:20.869Z,98669.28
2023-03-18T13:21:51.777Z,98672.69
2023-03-18T13:24:30.630Z,98679.47
2023-03-18T13:27:09.856Z,98667.22
2023-03-18T13:29:44.948Z,98673.88
2023-03-18T13:32:39.834Z,98678.88
2023-03-18T13:35:34.875Z,98685.41
2023-03-18T13:38:39.046Z,98682.50
2023-03-18T13:41:16.455Z,98676.19
2023-03-18T13:43:49.297Z,98670.50
2023-03-18T13:46:20.921Z,98681.53
2023-03-18T13:48:49.404Z,98671.22
2023-03-18T13:51:21.764Z,98682.66
2023-03-18T13:53:50.721Z,98679.94
2023-03-18T13:56:29.998Z,98675.47
2023-03-18T13:58:57.744Z,98671.84
2023-03-18T14:01:33.467Z,98664.69
2023-03-18T14:04:05.196Z,98664.94
2023-03-18T14:06:57.454Z,98652.94
2023-03-18T14:10:02.536Z,98657.06
2023-03-18T14:12:41.227Z,98651.50
2023-03-18T14:15:37.696Z,98653.78
2023-03-18T14:18:19.907Z,98645.94
2023-03-18T14:20:47.930Z,98643.13
2023-03-18T14:23:40.270Z,98648.22
2023-03-18T14:26:22.340Z,98648.72
2023-03-18T14:28:54.951Z,98659.00
2023-03-18T14:31:32.434Z,98644.34
2023-03-18T14:34:21.081Z,98645.56
2023-03-18T14:37:24.203Z,98645.44
2023-03-18T14:39:53.821Z,98640.00
2023-03-18T14:42:35.519Z,98637.06
2023-03-18T14:45:07.222Z,98642.28
2023-03-18T14:47:42.190Z,98643.00
2023-03-18T14:50:18.129Z,98636.03
2023-03-18T14:52:50.880Z,98633.66
2023-03-18T14:55:21.424Z,98626.66
2023-03-18T14:57:49.044Z,98635.81
2023-03-18T15:00:18.393Z,98630.88
2023-03-18T15:02:46.502Z,98630.25
2023-03-18T15:05:18.615Z,98630.88
2023-03-18T15:07:52.653Z,98627.38
2023-03-18T15:10:24.494Z,98623.16
2023-03-18T15:12:59.598Z,98625.19
2023-03-18T15:15:28.129Z,98621.06
2023-03-18T15:17:55.674Z,98619.75
2023-03-18T15:20:24.689Z,98619.00
2023-03-18T15:22:52.807Z,98614.66
2023-03-18T15:25:21.374Z,98612.97
2023-03-18T15:27:50.081Z,98615.38
2023-03-18T15:30:25.702Z,98610.81
2023-03-18T15:32:56.721Z,98608.75
2023-03-18T15:35:28.696Z,98608.25
2023-03-18T15:38:07.816Z,98606.22
2023-03-18T15:40:38.014Z,98607.66
2023-03-18T15:43:13.317Z,98612.50
2023-03-18T15:45:43.597Z,98601.47
2023-03-18T15:48:23.353Z,98598.09
2023-03-18T15:50:58.248Z,98597.97
2023-03-18T15:53:27.189Z,98596.28
2023-03-18T15:55:56.382Z,98592.28
2023-03-18T15:58:26.733Z,98590.84
2023-03-18T16:00:55.558Z,98590.72
2023-03-18T16:03:24.919Z,98592.66
2023-03-18T16:05:53.861Z,98592.78
2023-03-18T16:08:23.698Z,98593.63
2023-03-18T16:10:52.926Z,98592.41
2023-03-18T16:13:24.377Z,98596.03
2023-03-18T16:15:52.643Z,98594.84
2023-03-18T16:18:20.374Z,98591.81
2023-03-18T16:20:48.781Z,98586.69
2023-03-18T16:23:17.683Z,98590.44
2023-03-18T16:25:48.705Z,98590.22
2023-03-18T16:28:20.605Z,98588.16
2023-03-18T16:30:49.515Z,98586.81
2023-03-18T16:33:18.268Z,98588.88
2023-03-18T16:35:47.271Z,98585.00
2023-03-18T16:38:17.205Z,98592.84
2023-03-18T16:40:47.224Z,98600.59
2023-03-18T16:43:18.234Z,98600.97
2023-03-18T16:45:47.352Z,98601.44
2023-03-18T16:48:17.586Z,98600.69
2023-03-18T16:50:47.504Z,98607.78
2023-03-18T16:53:18.377Z,98608.72
2023-03-18T16:55:48.391Z,98605.28
2023-03-18T16:58:17.775Z,98608.88
2023-03-18T17:00:48.162Z,98610.19
2023-03-18T17:03:18.124Z,98612.13
2023-03-18T17:05:47.195Z,98601.03
2023-03-18T17:08:14.844Z,98621.84
2023-03-18T17:10:43.791Z,98607.84
2023-03-18T17:13:18.958Z,98617.44
2023-03-18T17:15:46.922Z,98622.47
2023-03-18T17:18:16.714Z,98619.84
2023-03-18T17:20:45.658Z,98629.31
2023-03-18T17:23:16.825Z,98625.69
2023-03-18T17:25:48.534Z,98625.63
2023-03-18T17:28:23.418Z,98630.41
2023-03-18T17:30:51.412Z,98629.97
2023-03-18T17:33:25.135Z,98627.97
2023-03-18T17:35:53.278Z,98636.47
2023-03-18T17:38:21.526Z,98637.13
2023-03-18T17:40:49.263Z,98637.19
2023-03-18T17:43:27.425Z,98637.19
2023-03-18T17:45:56.494Z,98641.63
2023-03-18T17:48:25.627Z,98642.16
2023-03-18T17:50:55.189Z,98651.56
2023-03-18T17:53:25.866Z,98646.03
2023-03-18T17:55:54.834Z,98652.50
2023-03-18T17:58:26.050Z,98652.81
2023-03-18T18:00:54.846Z,98652.88
2023-03-18T18:03:25.558Z,98651.69
2023-03-18T18:05:53.921Z,98642.13
2023-03-18T18:08:22.740Z,98651.13
2023-03-18T18:10:50.731Z,98642.81
2023-03-18T18:13:19.923Z,98650.13
2023-03-18T18:15:49.474Z,98645.19
2023-03-18T18:18:24.035Z,98650.69
2023-03-18T18:20:54.795Z,98647.56
2023-03-18T18:23:28.749Z,98648.16
2023-03-18T18:25:58.791Z,98651.00
2023-03-18T18:28:30.578Z,98651.88
2023-03-18T18:30:59.965Z,98655.75
2023-03-18T18:33:28.077Z,98650.75
2023-03-18T18:35:56.320Z,98657.28
2023-03-18T18:38:25.703Z,98657.50
2023-03-18T18:40:53.979Z,98658.78
2023-03-18T18:43:21.819Z,98660.41
2023-03-18T18:45:49.844Z,98657.38
2023-03-18T18:48:20.542Z,98659.09
2023-03-18T18:50:48.571Z,98650.78
2023-03-18T18:53:19.909Z,98667.22
2023-03-18T18:55:47.609Z,98662.97
2023-03-18T18:58:17.706Z,98667.31
2023-03-18T19:00:46.338Z,98665.34
2023-03-18T19:03:15.515Z,98664.13
2023-03-18T19:05:45.944Z,98669.03
2023-03-18T19:08:25.026Z,98660.53
2023-03-18T19:10:54.000Z,98667.69
2023-03-18T19:13:21.781Z,98660.22
2023-03-18T19:15:49.999Z,98666.53
2023-03-18T19:18:19.776Z,98667.22
2023-03-18T19:20:49.551Z,98670.31
2023-03-18T19:23:17.833Z,98671.63
2023-03-18T19:25:46.326Z,98675.78
2023-03-18T19:28:17.188Z,98671.16
2023-03-18T19:30:45.620Z,98667.06
2023-03-18T19:33:15.674Z,98668.38
2023-03-18T19:35:43.635Z,98674.50
2023-03-18T19:38:19.402Z,98673.66
2023-03-18T19:40:48.790Z,98674.88
2023-03-18T19:43:17.674Z,98679.50
2023-03-18T19:45:46.228Z,98680.44
2023-03-18T19:48:17.135Z,98681.63
2023-03-18T19:50:45.135Z,98680.19
2023-03-18T19:53:13.897Z,98680.97
2023-03-18T19:55:43.527Z,98680.03
2023-03-18T19:58:16.208Z,98685.41
2023-03-18T20:00:45.710Z,98680.28
2023-03-18T20:03:15.671Z,98687.72
2023-03-18T20:05:43.250Z,98687.28
2023-03-18T20:08:10.824Z,98695.13
2023-03-18T20:10:38.690Z,98686.50
2023-03-18T20:13:07.744Z,98690.78
2023-03-18T20:15:35.899Z,98697.59
2023-03-18T20:18:03.697Z,98695.38
2023-03-18T20:20:32.241Z,98698.03
2023-03-18T20:23:02.041Z,98709.53
2023-03-18T20:25:34.326Z,98705.09
2023-03-18T20:28:04.510Z,98704.91
2023-03-18T20:30:35.266Z,98702.38
2023-03-18T20:33:04.404Z,98709.44
2023-03-18T20:35:33.484Z,98709.59
2023-03-18T20:38:04.915Z,98705.94
2023-03-18T20:40:33.975Z,98705.19
2023-03-18T20:43:01.629Z,98708.75
2023-03-18T20:45:29.499Z,98714.22
2023-03-18T20:47:58.498Z,98707.31
2023-03-18T20:50:29.700Z,98707.72
2023-03-18T20:52:57.520Z,98711.56
2023-03-18T20:55:30.313Z,98715.16
2023-03-18T20:57:58.265Z,98716.94
2023-03-18T21:00:27.915Z,98710.38
2023-03-18T21:02:58.563Z,98719.34
2023-03-18T21:05:27.510Z,98727.25
2023-03-18T21:07:55.202Z,98726.31
2023-03-18T21:10:24.409Z,98731.78
2023-03-18T21:12:52.640Z,98725.13
2023-03-18T21:15:22.291Z,98729.56
2023-03-18T21:17:50.383Z,98728.53
2023-03-18T21:20:22.690Z,98719.91
2023-03-18T21:22:51.330Z,98723.94
2023-03-18T21:25:20.496Z,98717.13
2023-03-18T21:27:48.230Z,98719.59
2023-03-18T21:30:17.361Z,98718.31
2023-03-18T21:32:46.197Z,98711.06
2023-03-18T21:35:19.670Z,98715.84
2023-03-18T21:37:47.308Z,98715.75
2023-03-18T21:40:17.044Z,98720.59
2023-03-18T21:42:44.706Z,98714.66
2023-03-18T21:45:13.573Z,98724.19
2023-03-18T21:47:41.252Z,98714.91
2023-03-18T21:50:13.308Z,98718.81
2023-03-18T21:52:42.417Z,98714.72
2023-03-18T21:55:13.214Z,98726.50
2023-03-18T21:57:40.965Z,98727.00
2023-03-18T22:00:09.977Z,98734.66
2023-03-18T22:02:38.599Z,98728.88
2023-03-18T22:05:11.307Z,98726.13
2023-03-18T22:07:38.911Z,98716.34
2023-03-18T22:10:08.896Z,98713.78
2023-03-18T22:12:36.558Z,98713.78
2023-03-18T22:15:04.738Z,98711.06
2023-03-18T22:17:34.235Z,98713.97
2023-03-18T22:20:02.907Z,98716.69
2023-03-18T22:22:31.474Z,98711.31
2023-03-18T22:24:59.151Z,98713.59
2023-03-18T22:27:29.260Z,98716.09
2023-03-18T22:29:58.672Z,98710.03
2023-03-18T22:32:38.707Z,98716.25
2023-03-18T22:35:08.766Z,98710.38
2023-03-18T22:37:36.340Z,98712.41
2023-03-18T22:40:04.361Z,98714.38
2023-03-18T22:42:33.519Z,98718.13
2023-03-18T22:45:01.176Z,98720.53
2023-03-18T22:47:28.708Z,98718.41
2023-03-18T22:49:56.238Z,98724.69
2023-03-18T22:52:24.996Z,98722.81
2023-03-18T22:54:54.234Z,98722.94
2023-03-18T22:57:24.673Z,98713.00
2023-03-18T22:59:53.731Z,98722.69
2023-03-18T23:02:22.986Z,98719.88
2023-03-18T23:04:51.935Z,98720.53
2023-03-18T23:07:27.865Z,98718.81
2023-03-18T23:09:57.348Z,98717.38
2023-03-18T23:12:26.745Z,98724.63
2023-03-18T23:14:55.670Z,98717.31
2023-03-18T23:17:25.693Z,98714.00
2023-03-18T23:19:54.127Z,98719.03
2023-03-18T23:22:24.771Z,98706.00
2023-03-18T23:24:52.839Z,98721.50
2023-03-18T23:27:20.404Z,98722.19
2023-03-18T23:29:48.109Z,98730.78
2023-03-18T23:32:18.166Z,98734.59
2023-03-18T23:34:46.781Z,98740.56
2023-03-18T23:37:15.461Z,98740.50
2023-03-18T23:39:45.989Z,98741.59
2023-03-18T23:42:14.301Z,98739.59
2023-03-18T23:44:41.934Z,98751.09
2023-03-18T23:47:11.059Z,98753.72
2023-03-18T23:49:40.800Z,98747.50
2023-03-18T23:52:10.702Z,98740.63
2023-03-18T23:54:39.276Z,98752.09
2023-03-18T23:57:08.597Z,98750.72
2023-03-18T23:59:36.647Z,98749.78
